sensor_id;sensor_type;location;lat;lon;timestamp;temperature;humidity
68177;DHT22;56478;50.982;7.032;2023-02-15T00:01:32;4.91;75.79
68177;DHT22;56478;50.982;7.032;2023-02-15T00:03:58;4.92;75.90
68177;DHT22;56478;50.982;7.032;2023-02-15T00:06:23;4.89;75.99
68177;DHT22;56478;50.982;7.032;2023-02-15T00:08:49;4.97;75.52
68177;DHT22;56478;50.982;7.032;2023-02-15T00:11:16;4.95;75.88
68177;DHT22;56478;50.982;7.032;2023-02-15T00:13:42;4.88;75.92
68177;DHT22;56478;50.982;7.032;2023-02-15T00:16:10;4.86;76.03
68177;DHT22;56478;50.982;7.032;2023-02-15T00:18:36;4.97;75.52
68177;DHT22;56478;50.982;7.032;2023-02-15T00:21:07;4.96;75.35
68177;DHT22;56478;50.982;7.032;2023-02-15T00:23:33;4.85;75.78
68177;DHT22;56478;50.982;7.032;2023-02-15T00:26:09;4.91;75.61
68177;DHT22;56478;50.982;7.032;2023-02-15T00:28:35;4.75;75.72
68177;DHT22;56478;50.982;7.032;2023-02-15T00:31:04;4.71;76.45
68177;DHT22;56478;50.982;7.032;2023-02-15T00:33:30;4.81;76.01
68177;DHT22;56478;50.982;7.032;2023-02-15T00:36:00;4.72;76.08
68177;DHT22;56478;50.982;7.032;2023-02-15T00:38:27;4.71;76.20
68177;DHT22;56478;50.982;7.032;2023-02-15T00:40:54;4.72;76.06
68177;DHT22;56478;50.982;7.032;2023-02-15T00:43:20;4.74;76.30
68177;DHT22;56478;50.982;7.032;2023-02-15T00:45:46;4.67;76.33
68177;DHT22;56478;50.982;7.032;2023-02-15T00:48:11;4.77;76.01
68177;DHT22;56478;50.982;7.032;2023-02-15T00:50:37;4.75;75.79
68177;DHT22;56478;50.982;7.032;2023-02-15T00:53:02;4.69;76.11
68177;DHT22;56478;50.982;7.032;2023-02-15T00:55:28;4.67;76.10
68177;DHT22;56478;50.982;7.032;2023-02-15T00:57:53;4.62;76.34
68177;DHT22;56478;50.982;7.032;2023-02-15T01:00:19;4.60;76.48
68177;DHT22;56478;50.982;7.032;2023-02-15T01:02:45;4.64;76.11
68177;DHT22;56478;50.982;7.032;2023-02-15T01:05:10;4.56;76.75
68177;DHT22;56478;50.982;7.032;2023-02-15T01:07:36;4.56;76.49
68177;DHT22;56478;50.982;7.032;2023-02-15T01:10:02;4.47;76.56
68177;DHT22;56478;50.982;7.032;2023-02-15T01:12:27;4.47;76.81
68177;DHT22;56478;50.982;7.032;2023-02-15T01:14:53;4.50;76.90
68177;DHT22;56478;50.982;7.032;2023-02-15T01:17:18;4.50;76.89
68177;DHT22;56478;50.982;7.032;2023-02-15T01:19:44;4.46;76.48
68177;DHT22;56478;50.982;7.032;2023-02-15T01:22:09;4.50;76.80
68177;DHT22;56478;50.982;7.032;2023-02-15T01:24:35;4.44;76.77
68177;DHT22;56478;50.982;7.032;2023-02-15T01:27:00;4.41;76.89
68177;DHT22;56478;50.982;7.032;2023-02-15T01:29:26;4.47;76.72
68177;DHT22;56478;50.982;7.032;2023-02-15T01:31:51;4.43;76.89
68177;DHT22;56478;50.982;7.032;2023-02-15T01:34:17;4.41;76.87
68177;DHT22;56478;50.982;7.032;2023-02-15T01:36:43;4.49;76.76
68177;DHT22;56478;50.982;7.032;2023-02-15T01:39:08;4.50;76.34
68177;DHT22;56478;50.982;7.032;2023-02-15T01:41:36;4.36;77.00
68177;DHT22;56478;50.982;7.032;2023-02-15T01:44:02;4.41;76.98
68177;DHT22;56478;50.982;7.032;2023-02-15T01:49:02;4.39;76.97
68177;DHT22;56478;50.982;7.032;2023-02-15T01:51:30;4.41;76.87
68177;DHT22;56478;50.982;7.032;2023-02-15T01:54:26;4.36;76.89
68177;DHT22;56478;50.982;7.032;2023-02-15T01:56:54;4.34;76.84
68177;DHT22;56478;50.982;7.032;2023-02-15T01:59:23;4.34;77.01
68177;DHT22;56478;50.982;7.032;2023-02-15T02:01:51;4.36;76.78
68177;DHT22;56478;50.982;7.032;2023-02-15T02:04:24;4.32;77.04
68177;DHT22;56478;50.982;7.032;2023-02-15T02:06:51;4.17;77.23
68177;DHT22;56478;50.982;7.032;2023-02-15T02:09:18;4.25;76.73
68177;DHT22;56478;50.982;7.032;2023-02-15T02:11:46;4.20;77.18
68177;DHT22;56478;50.982;7.032;2023-02-15T02:14:12;4.15;77.24
68177;DHT22;56478;50.982;7.032;2023-02-15T02:27:40;3.95;78.31
68177;DHT22;56478;50.982;7.032;2023-02-15T02:33:20;4.01;77.88
68177;DHT22;56478;50.982;7.032;2023-02-15T02:36:13;4.03;77.68
68177;DHT22;56478;50.982;7.032;2023-02-15T02:39:03;3.97;77.88
68177;DHT22;56478;50.982;7.032;2023-02-15T02:44:34;3.84;78.28
68177;DHT22;56478;50.982;7.032;2023-02-15T02:47:12;3.75;78.53
68177;DHT22;56478;50.982;7.032;2023-02-15T02:49:40;3.77;78.31
68177;DHT22;56478;50.982;7.032;2023-02-15T02:52:43;3.84;78.00
68177;DHT22;56478;50.982;7.032;2023-02-15T03:00:20;3.61;78.86
68177;DHT22;56478;50.982;7.032;2023-02-15T03:02:49;3.70;78.23
68177;DHT22;56478;50.982;7.032;2023-02-15T03:05:20;3.66;78.49
68177;DHT22;56478;50.982;7.032;2023-02-15T03:07:49;3.66;78.23
68177;DHT22;56478;50.982;7.032;2023-02-15T03:10:18;3.50;79.25
68177;DHT22;56478;50.982;7.032;2023-02-15T03:12:46;3.53;78.87
68177;DHT22;56478;50.982;7.032;2023-02-15T03:15:21;3.54;78.66
68177;DHT22;56478;50.982;7.032;2023-02-15T03:17:51;3.59;78.60
68177;DHT22;56478;50.982;7.032;2023-02-15T03:20:30;3.54;79.05
68177;DHT22;56478;50.982;7.032;2023-02-15T03:23:00;3.57;78.84
68177;DHT22;56478;50.982;7.032;2023-02-15T03:25:34;3.47;78.92
68177;DHT22;56478;50.982;7.032;2023-02-15T03:28:06;3.50;78.87
68177;DHT22;56478;50.982;7.032;2023-02-15T03:30:34;3.46;79.21
68177;DHT22;56478;50.982;7.032;2023-02-15T03:33:02;3.49;79.12
68177;DHT22;56478;50.982;7.032;2023-02-15T03:35:45;3.54;79.12
68177;DHT22;56478;50.982;7.032;2023-02-15T03:38:18;3.47;78.78
68177;DHT22;56478;50.982;7.032;2023-02-15T03:40:46;3.40;79.30
68177;DHT22;56478;50.982;7.032;2023-02-15T03:46:18;3.59;78.51
68177;DHT22;56478;50.982;7.032;2023-02-15T03:48:53;3.47;78.47
68177;DHT22;56478;50.982;7.032;2023-02-15T03:51:22;3.39;78.85
68177;DHT22;56478;50.982;7.032;2023-02-15T03:54:10;3.36;79.07
68177;DHT22;56478;50.982;7.032;2023-02-15T03:56:40;3.40;78.76
68177;DHT22;56478;50.982;7.032;2023-02-15T03:59:06;3.36;78.87
68177;DHT22;56478;50.982;7.032;2023-02-15T04:04:33;3.36;79.01
68177;DHT22;56478;50.982;7.032;2023-02-15T04:06:59;3.42;79.12
68177;DHT22;56478;50.982;7.032;2023-02-15T04:09:24;3.46;79.07
68177;DHT22;56478;50.982;7.032;2023-02-15T04:12:09;3.40;78.90
68177;DHT22;56478;50.982;7.032;2023-02-15T04:14:34;3.47;78.85
68177;DHT22;56478;50.982;7.032;2023-02-15T04:17:18;3.47;78.57
68177;DHT22;56478;50.982;7.032;2023-02-15T04:19:44;3.43;78.68
68177;DHT22;56478;50.982;7.032;2023-02-15T04:22:28;3.46;78.69
68177;DHT22;56478;50.982;7.032;2023-02-15T04:25:12;3.29;79.34
68177;DHT22;56478;50.982;7.032;2023-02-15T04:27:39;3.25;79.35
68177;DHT22;56478;50.982;7.032;2023-02-15T04:30:05;3.25;79.07
68177;DHT22;56478;50.982;7.032;2023-02-15T04:32:31;3.25;79.08
68177;DHT22;56478;50.982;7.032;2023-02-15T04:34:57;3.29;79.18
68177;DHT22;56478;50.982;7.032;2023-02-15T04:37:22;3.23;78.94
68177;DHT22;56478;50.982;7.032;2023-02-15T04:39:48;3.25;78.85
68177;DHT22;56478;50.982;7.032;2023-02-15T04:42:15;3.05;79.52
68177;DHT22;56478;50.982;7.032;2023-02-15T04:44:41;3.04;79.52
68177;DHT22;56478;50.982;7.032;2023-02-15T04:47:06;3.05;79.29
68177;DHT22;56478;50.982;7.032;2023-02-15T04:49:32;3.04;79.70
68177;DHT22;56478;50.982;7.032;2023-02-15T04:51:57;3.07;79.90
68177;DHT22;56478;50.982;7.032;2023-02-15T04:54:23;3.16;79.38
68177;DHT22;56478;50.982;7.032;2023-02-15T04:56:48;3.18;79.07
68177;DHT22;56478;50.982;7.032;2023-02-15T04:59:14;3.08;79.74
68177;DHT22;56478;50.982;7.032;2023-02-15T05:01:40;3.11;79.37
68177;DHT22;56478;50.982;7.032;2023-02-15T05:04:05;3.04;79.63
68177;DHT22;56478;50.982;7.032;2023-02-15T05:06:31;3.08;79.15
68177;DHT22;56478;50.982;7.032;2023-02-15T05:08:56;3.08;79.31
68177;DHT22;56478;50.982;7.032;2023-02-15T05:11:25;3.11;79.12
68177;DHT22;56478;50.982;7.032;2023-02-15T05:13:50;3.09;79.04
68177;DHT22;56478;50.982;7.032;2023-02-15T05:16:16;3.02;79.47
68177;DHT22;56478;50.982;7.032;2023-02-15T05:18:41;3.04;79.32
68177;DHT22;56478;50.982;7.032;2023-02-15T05:21:07;3.01;79.34
68177;DHT22;56478;50.982;7.032;2023-02-15T05:23:32;3.00;79.54
68177;DHT22;56478;50.982;7.032;2023-02-15T05:25:58;2.97;79.52
68177;DHT22;56478;50.982;7.032;2023-02-15T05:28:42;3.00;79.55
68177;DHT22;56478;50.982;7.032;2023-02-15T05:31:13;2.95;79.52
68177;DHT22;56478;50.982;7.032;2023-02-15T05:33:40;3.00;79.67
68177;DHT22;56478;50.982;7.032;2023-02-15T05:36:06;3.02;79.49
68177;DHT22;56478;50.982;7.032;2023-02-15T05:38:32;3.00;79.61
68177;DHT22;56478;50.982;7.032;2023-02-15T05:40:58;2.97;79.56
68177;DHT22;56478;50.982;7.032;2023-02-15T05:43:24;2.88;79.64
68177;DHT22;56478;50.982;7.032;2023-02-15T05:45:52;2.90;79.86
68177;DHT22;56478;50.982;7.032;2023-02-15T05:48:19;2.94;79.40
68177;DHT22;56478;50.982;7.032;2023-02-15T05:50:45;2.73;80.09
68177;DHT22;56478;50.982;7.032;2023-02-15T05:53:10;2.70;80.15
68177;DHT22;56478;50.982;7.032;2023-02-15T05:55:40;2.77;79.81
68177;DHT22;56478;50.982;7.032;2023-02-15T05:58:06;2.64;80.61
68177;DHT22;56478;50.982;7.032;2023-02-15T06:00:34;2.70;79.95
68177;DHT22;56478;50.982;7.032;2023-02-15T06:02:59;2.60;80.32
68177;DHT22;56478;50.982;7.032;2023-02-15T06:05:25;2.60;80.56
68177;DHT22;56478;50.982;7.032;2023-02-15T06:07:50;2.50;80.99
68177;DHT22;56478;50.982;7.032;2023-02-15T06:10:16;2.61;80.47
68177;DHT22;56478;50.982;7.032;2023-02-15T06:12:44;2.64;80.22
68177;DHT22;56478;50.982;7.032;2023-02-15T06:15:09;2.66;80.19
68177;DHT22;56478;50.982;7.032;2023-02-15T06:17:35;2.53;80.72
68177;DHT22;56478;50.982;7.032;2023-02-15T06:20:00;2.58;80.20
68177;DHT22;56478;50.982;7.032;2023-02-15T06:22:26;2.61;80.55
68177;DHT22;56478;50.982;7.032;2023-02-15T06:24:51;2.60;80.18
68177;DHT22;56478;50.982;7.032;2023-02-15T06:27:17;2.54;80.34
68177;DHT22;56478;50.982;7.032;2023-02-15T06:29:42;2.49;80.40
68177;DHT22;56478;50.982;7.032;2023-02-15T06:32:08;2.53;80.57
68177;DHT22;56478;50.982;7.032;2023-02-15T06:34:33;2.49;80.97
68177;DHT22;56478;50.982;7.032;2023-02-15T06:36:59;2.53;80.67
68177;DHT22;56478;50.982;7.032;2023-02-15T06:39:24;2.54;80.50
68177;DHT22;56478;50.982;7.032;2023-02-15T06:41:50;2.54;80.29
68177;DHT22;56478;50.982;7.032;2023-02-15T06:44:15;2.54;80.61
68177;DHT22;56478;50.982;7.032;2023-02-15T06:46:41;2.58;80.50
68177;DHT22;56478;50.982;7.032;2023-02-15T06:49:06;2.54;80.54
68177;DHT22;56478;50.982;7.032;2023-02-15T06:51:32;2.67;80.58
68177;DHT22;56478;50.982;7.032;2023-02-15T06:53:59;2.74;79.98
68177;DHT22;56478;50.982;7.032;2023-02-15T06:56:25;2.72;79.77
68177;DHT22;56478;50.982;7.032;2023-02-15T06:58:50;2.72;79.75
68177;DHT22;56478;50.982;7.032;2023-02-15T07:01:19;2.77;79.67
68177;DHT22;56478;50.982;7.032;2023-02-15T07:03:44;2.84;79.72
68177;DHT22;56478;50.982;7.032;2023-02-15T07:06:10;2.84;79.44
68177;DHT22;56478;50.982;7.032;2023-02-15T07:08:37;2.91;79.08
68177;DHT22;56478;50.982;7.032;2023-02-15T07:11:04;3.01;78.76
68177;DHT22;56478;50.982;7.032;2023-02-15T07:13:49;3.00;78.79
68177;DHT22;56478;50.982;7.032;2023-02-15T07:16:15;2.92;78.64
68177;DHT22;56478;50.982;7.032;2023-02-15T07:18:40;2.97;78.79
68177;DHT22;56478;50.982;7.032;2023-02-15T07:21:06;2.92;78.85
68177;DHT22;56478;50.982;7.032;2023-02-15T07:23:39;3.11;79.01
68177;DHT22;56478;50.982;7.032;2023-02-15T07:26:05;3.11;78.55
68177;DHT22;56478;50.982;7.032;2023-02-15T07:28:32;3.15;78.18
68177;DHT22;56478;50.982;7.032;2023-02-15T07:30:58;3.16;78.43
68177;DHT22;56478;50.982;7.032;2023-02-15T07:33:24;2.97;78.57
68177;DHT22;56478;50.982;7.032;2023-02-15T07:35:50;3.12;78.64
68177;DHT22;56478;50.982;7.032;2023-02-15T07:38:17;3.32;77.99
68177;DHT22;56478;50.982;7.032;2023-02-15T07:40:43;3.40;77.74
68177;DHT22;56478;50.982;7.032;2023-02-15T07:43:08;3.78;76.39
68177;DHT22;56478;50.982;7.032;2023-02-15T07:45:34;4.25;75.26
68177;DHT22;56478;50.982;7.032;2023-02-15T07:48:01;4.62;73.49
68177;DHT22;56478;50.982;7.032;2023-02-15T07:50:26;4.54;72.89
68177;DHT22;56478;50.982;7.032;2023-02-15T07:52:54;4.88;72.32
68177;DHT22;56478;50.982;7.032;2023-02-15T07:55:20;5.61;70.11
68177;DHT22;56478;50.982;7.032;2023-02-15T07:57:47;6.45;67.35
68177;DHT22;56478;50.982;7.032;2023-02-15T08:00:15;7.70;64.33
68177;DHT22;56478;50.982;7.032;2023-02-15T08:02:52;9.31;59.20
68177;DHT22;56478;50.982;7.032;2023-02-15T08:05:37;10.33;55.40
68177;DHT22;56478;50.982;7.032;2023-02-15T08:08:05;10.38;53.61
68177;DHT22;56478;50.982;7.032;2023-02-15T08:10:35;11.75;50.77
68177;DHT22;56478;50.982;7.032;2023-02-15T08:13:19;12.69;46.91
68177;DHT22;56478;50.982;7.032;2023-02-15T08:15:51;11.62;50.20
68177;DHT22;56478;50.982;7.032;2023-02-15T08:18:17;11.97;48.87
68177;DHT22;56478;50.982;7.032;2023-02-15T08:20:48;12.56;47.09
68177;DHT22;56478;50.982;7.032;2023-02-15T08:23:14;12.77;46.62
68177;DHT22;56478;50.982;7.032;2023-02-15T08:25:40;13.23;45.24
68177;DHT22;56478;50.982;7.032;2023-02-15T08:28:05;12.33;47.75
68177;DHT22;56478;50.982;7.032;2023-02-15T08:30:31;12.81;46.97
68177;DHT22;56478;50.982;7.032;2023-02-15T08:32:56;12.11;48.29
68177;DHT22;56478;50.982;7.032;2023-02-15T08:35:22;12.04;47.67
68177;DHT22;56478;50.982;7.032;2023-02-15T08:37:48;12.49;46.17
68177;DHT22;56478;50.982;7.032;2023-02-15T08:40:13;13.32;44.72
68177;DHT22;56478;50.982;7.032;2023-02-15T08:42:39;13.71;44.22
68177;DHT22;56478;50.982;7.032;2023-02-15T08:45:05;14.45;41.64
68177;DHT22;56478;50.982;7.032;2023-02-15T08:47:30;14.68;40.97
68177;DHT22;56478;50.982;7.032;2023-02-15T08:49:56;13.51;44.07
68177;DHT22;56478;50.982;7.032;2023-02-15T08:52:21;14.71;41.81
68177;DHT22;56478;50.982;7.032;2023-02-15T08:54:47;14.43;41.48
68177;DHT22;56478;50.982;7.032;2023-02-15T08:57:12;14.01;42.77
68177;DHT22;56478;50.982;7.032;2023-02-15T08:59:38;14.38;41.72
68177;DHT22;56478;50.982;7.032;2023-02-15T09:02:03;14.19;42.08
68177;DHT22;56478;50.982;7.032;2023-02-15T09:04:29;14.19;42.83
68177;DHT22;56478;50.982;7.032;2023-02-15T09:06:54;14.10;42.97
68177;DHT22;56478;50.982;7.032;2023-02-15T09:09:21;15.19;40.28
68177;DHT22;56478;50.982;7.032;2023-02-15T09:11:49;15.20;40.66
68177;DHT22;56478;50.982;7.032;2023-02-15T09:14:17;14.99;39.43
68177;DHT22;56478;50.982;7.032;2023-02-15T09:16:46;13.39;42.72
68177;DHT22;56478;50.982;7.032;2023-02-15T09:19:14;14.50;41.89
68177;DHT22;56478;50.982;7.032;2023-02-15T09:21:40;15.03;40.66
68177;DHT22;56478;50.982;7.032;2023-02-15T09:24:08;14.92;40.33
68177;DHT22;56478;50.982;7.032;2023-02-15T09:26:36;16.30;38.86
68177;DHT22;56478;50.982;7.032;2023-02-15T09:29:02;16.88;36.78
68177;DHT22;56478;50.982;7.032;2023-02-15T09:31:44;15.24;39.64
68177;DHT22;56478;50.982;7.032;2023-02-15T09:34:12;16.60;37.49
68177;DHT22;56478;50.982;7.032;2023-02-15T10:40:51;15.78;39.38
68177;DHT22;56478;50.982;7.032;2023-02-15T10:50:13;16.52;37.67
68177;DHT22;56478;50.982;7.032;2023-02-15T10:58:29;15.36;41.10
68177;DHT22;56478;50.982;7.032;2023-02-15T11:01:32;15.54;40.66
68177;DHT22;56478;50.982;7.032;2023-02-15T11:06:59;14.47;43.14
68177;DHT22;56478;50.982;7.032;2023-02-15T11:09:36;14.67;42.54
68177;DHT22;56478;50.982;7.032;2023-02-15T11:12:09;14.64;42.86
68177;DHT22;56478;50.982;7.032;2023-02-15T11:14:43;14.45;44.03
68177;DHT22;56478;50.982;7.032;2023-02-15T11:17:15;14.44;43.42
68177;DHT22;56478;50.982;7.032;2023-02-15T11:20:21;13.71;44.58
68177;DHT22;56478;50.982;7.032;2023-02-15T11:22:50;13.98;44.11
68177;DHT22;56478;50.982;7.032;2023-02-15T11:25:24;13.81;44.83
68177;DHT22;56478;50.982;7.032;2023-02-15T11:27:51;14.19;44.10
68177;DHT22;56478;50.982;7.032;2023-02-15T11:30:24;14.25;44.26
68177;DHT22;56478;50.982;7.032;2023-02-15T11:32:53;13.67;45.08
68177;DHT22;56478;50.982;7.032;2023-02-15T11:35:22;13.36;46.57
68177;DHT22;56478;50.982;7.032;2023-02-15T11:38:14;13.81;45.51
68177;DHT22;56478;50.982;7.032;2023-02-15T11:41:21;13.74;44.87
68177;DHT22;56478;50.982;7.032;2023-02-15T11:43:57;13.48;46.25
68177;DHT22;56478;50.982;7.032;2023-02-15T11:46:24;13.72;45.39
68177;DHT22;56478;50.982;7.032;2023-02-15T11:48:52;13.94;45.21
68177;DHT22;56478;50.982;7.032;2023-02-15T11:51:20;14.01;44.66
68177;DHT22;56478;50.982;7.032;2023-02-15T11:53:47;14.01;45.42
68177;DHT22;56478;50.982;7.032;2023-02-15T11:56:21;14.13;45.38
68177;DHT22;56478;50.982;7.032;2023-02-15T11:59:24;14.48;44.07
68177;DHT22;56478;50.982;7.032;2023-02-15T12:01:46;14.26;45.12
68177;DHT22;56478;50.982;7.032;2023-02-15T12:04:22;14.56;45.12
68177;DHT22;56478;50.982;7.032;2023-02-15T12:09:40;14.69;43.87
68177;DHT22;56478;50.982;7.032;2023-02-15T12:12:28;14.63;44.04
68177;DHT22;56478;50.982;7.032;2023-02-15T12:14:55;14.22;45.64
68177;DHT22;56478;50.982;7.032;2023-02-15T12:17:24;14.29;45.56
68177;DHT22;56478;50.982;7.032;2023-02-15T12:19:52;14.43;44.92
68177;DHT22;56478;50.982;7.032;2023-02-15T12:22:30;14.38;45.04
68177;DHT22;56478;50.982;7.032;2023-02-15T12:25:02;14.22;45.10
68177;DHT22;56478;50.982;7.032;2023-02-15T12:27:30;14.25;45.71
68177;DHT22;56478;50.982;7.032;2023-02-15T12:33:18;14.32;45.39
68177;DHT22;56478;50.982;7.032;2023-02-15T12:36:40;14.23;45.35
68177;DHT22;56478;50.982;7.032;2023-02-15T12:38:40;14.23;45.27
68177;DHT22;56478;50.982;7.032;2023-02-15T12:41:22;14.38;45.74
68177;DHT22;56478;50.982;7.032;2023-02-15T12:44:06;13.99;45.35
68177;DHT22;56478;50.982;7.032;2023-02-15T12:46:32;13.85;46.05
68177;DHT22;56478;50.982;7.032;2023-02-15T12:49:07;13.85;46.84
68177;DHT22;56478;50.982;7.032;2023-02-15T12:54:37;13.94;47.22
68177;DHT22;56478;50.982;7.032;2023-02-15T12:57:31;13.92;46.78
68177;DHT22;56478;50.982;7.032;2023-02-15T12:59:59;14.10;46.96
68177;DHT22;56478;50.982;7.032;2023-02-15T13:02:27;14.12;45.94
68177;DHT22;56478;50.982;7.032;2023-02-15T13:04:53;14.08;46.77
68177;DHT22;56478;50.982;7.032;2023-02-15T13:07:20;14.32;46.85
68177;DHT22;56478;50.982;7.032;2023-02-15T13:09:47;14.36;46.12
68177;DHT22;56478;50.982;7.032;2023-02-15T13:14:45;14.57;45.45
68177;DHT22;56478;50.982;7.032;2023-02-15T13:17:13;14.50;46.22
68177;DHT22;56478;50.982;7.032;2023-02-15T13:19:46;14.30;46.18
68177;DHT22;56478;50.982;7.032;2023-02-15T13:22:16;14.36;45.43
68177;DHT22;56478;50.982;7.032;2023-02-15T13:27:19;14.01;46.35
68177;DHT22;56478;50.982;7.032;2023-02-15T13:29:51;13.97;47.02
68177;DHT22;56478;50.982;7.032;2023-02-15T13:32:35;13.86;46.83
68177;DHT22;56478;50.982;7.032;2023-02-15T13:35:04;13.77;47.15
68177;DHT22;56478;50.982;7.032;2023-02-15T13:40:18;14.09;47.09
68177;DHT22;56478;50.982;7.032;2023-02-15T13:45:36;14.20;47.45
68177;DHT22;56478;50.982;7.032;2023-02-15T13:54:08;14.13;46.66
68177;DHT22;56478;50.982;7.032;2023-02-15T14:00:03;13.97;47.39
68177;DHT22;56478;50.982;7.032;2023-02-15T14:08:17;13.83;47.27
68177;DHT22;56478;50.982;7.032;2023-02-15T14:14:02;13.91;47.25
68177;DHT22;56478;50.982;7.032;2023-02-15T14:19:50;14.08;47.26
68177;DHT22;56478;50.982;7.032;2023-02-15T14:22:44;14.13;47.73
68177;DHT22;56478;50.982;7.032;2023-02-15T14:25:27;14.20;47.49
68177;DHT22;56478;50.982;7.032;2023-02-15T14:31:19;14.25;47.36
68177;DHT22;56478;50.982;7.032;2023-02-15T14:33:55;14.23;47.54
68177;DHT22;56478;50.982;7.032;2023-02-15T14:36:22;14.26;47.57
68177;DHT22;56478;50.982;7.032;2023-02-15T14:39:13;14.22;47.76
68177;DHT22;56478;50.982;7.032;2023-02-15T14:42:05;14.13;48.11
68177;DHT22;56478;50.982;7.032;2023-02-15T14:44:39;14.05;48.11
68177;DHT22;56478;50.982;7.032;2023-02-15T14:49:39;13.99;48.43
68177;DHT22;56478;50.982;7.032;2023-02-15T14:52:11;13.88;48.64
68177;DHT22;56478;50.982;7.032;2023-02-15T15:04:40;13.37;49.88
68177;DHT22;56478;50.982;7.032;2023-02-15T15:09:35;13.23;50.77
68177;DHT22;56478;50.982;7.032;2023-02-15T15:14:45;13.23;51.25
68177;DHT22;56478;50.982;7.032;2023-02-15T15:17:13;13.22;51.27
68177;DHT22;56478;50.982;7.032;2023-02-15T15:20:10;13.08;51.78
68177;DHT22;56478;50.982;7.032;2023-02-15T15:22:40;13.12;51.36
68177;DHT22;56478;50.982;7.032;2023-02-15T15:25:39;13.08;51.76
68177;DHT22;56478;50.982;7.032;2023-02-15T15:28:05;13.01;51.93
68177;DHT22;56478;50.982;7.032;2023-02-15T15:50:19;12.34;53.83
68177;DHT22;56478;50.982;7.032;2023-02-15T15:52:55;12.36;53.60
68177;DHT22;56478;50.982;7.032;2023-02-15T15:55:26;12.36;53.64
68177;DHT22;56478;50.982;7.032;2023-02-15T15:57:59;12.14;54.47
68177;DHT22;56478;50.982;7.032;2023-02-15T16:00:46;12.08;54.63
68177;DHT22;56478;50.982;7.032;2023-02-15T16:03:20;12.15;54.52
68177;DHT22;56478;50.982;7.032;2023-02-15T16:05:46;12.11;54.49
68177;DHT22;56478;50.982;7.032;2023-02-15T16:08:38;11.91;55.40
68177;DHT22;56478;50.982;7.032;2023-02-15T16:11:14;11.87;55.46
68177;DHT22;56478;50.982;7.032;2023-02-15T16:13:42;11.87;55.34
68177;DHT22;56478;50.982;7.032;2023-02-15T16:16:09;11.81;55.57
68177;DHT22;56478;50.982;7.032;2023-02-15T16:18:37;11.80;55.69
68177;DHT22;56478;50.982;7.032;2023-02-15T16:21:17;11.67;56.19
68177;DHT22;56478;50.982;7.032;2023-02-15T16:24:08;11.54;56.33
68177;DHT22;56478;50.982;7.032;2023-02-15T16:27:13;11.43;56.86
68177;DHT22;56478;50.982;7.032;2023-02-15T16:29:40;11.42;56.80
68177;DHT22;56478;50.982;7.032;2023-02-15T16:32:19;11.35;56.83
68177;DHT22;56478;50.982;7.032;2023-02-15T16:35:00;11.29;57.06
68177;DHT22;56478;50.982;7.032;2023-02-15T16:37:28;11.22;57.32
68177;DHT22;56478;50.982;7.032;2023-02-15T16:39:56;11.18;57.45
68177;DHT22;56478;50.982;7.032;2023-02-15T16:42:22;11.11;57.79
68177;DHT22;56478;50.982;7.032;2023-02-15T16:44:51;11.08;57.86
68177;DHT22;56478;50.982;7.032;2023-02-15T16:47:26;11.01;58.17
68177;DHT22;56478;50.982;7.032;2023-02-15T16:49:56;10.94;58.34
68177;DHT22;56478;50.982;7.032;2023-02-15T16:52:24;10.88;58.53
68177;DHT22;56478;50.982;7.032;2023-02-15T16:54:54;10.78;58.91
68177;DHT22;56478;50.982;7.032;2023-02-15T16:57:23;10.81;59.48
68177;DHT22;56478;50.982;7.032;2023-02-15T16:59:51;10.81;58.74
68177;DHT22;56478;50.982;7.032;2023-02-15T17:02:25;10.78;58.92
68177;DHT22;56478;50.982;7.032;2023-02-15T17:05:13;10.64;59.28
68177;DHT22;56478;50.982;7.032;2023-02-15T17:10:36;10.45;60.04
68177;DHT22;56478;50.982;7.032;2023-02-15T17:13:09;10.42;60.15
68177;DHT22;56478;50.982;7.032;2023-02-15T17:15:36;10.40;60.10
68177;DHT22;56478;50.982;7.032;2023-02-15T17:18:06;10.42;60.07
68177;DHT22;56478;50.982;7.032;2023-02-15T17:20:36;10.42;60.17
68177;DHT22;56478;50.982;7.032;2023-02-15T17:25:42;10.35;60.30
68177;DHT22;56478;50.982;7.032;2023-02-15T17:28:19;10.29;60.55
68177;DHT22;56478;50.982;7.032;2023-02-15T17:30:51;10.25;60.80
68177;DHT22;56478;50.982;7.032;2023-02-15T17:36:17;10.21;61.09
68177;DHT22;56478;50.982;7.032;2023-02-15T17:41:30;10.22;60.96
68177;DHT22;56478;50.982;7.032;2023-02-15T17:43:58;10.18;61.13
68177;DHT22;56478;50.982;7.032;2023-02-15T17:46:25;10.21;61.06
68177;DHT22;56478;50.982;7.032;2023-02-15T17:48:54;10.19;61.28
68177;DHT22;56478;50.982;7.032;2023-02-15T17:51:24;10.14;61.62
68177;DHT22;56478;50.982;7.032;2023-02-15T17:53:49;10.12;62.14
68177;DHT22;56478;50.982;7.032;2023-02-15T17:56:35;10.09;61.81
68177;DHT22;56478;50.982;7.032;2023-02-15T17:59:01;9.95;62.45
68177;DHT22;56478;50.982;7.032;2023-02-15T18:01:27;9.94;62.25
68177;DHT22;56478;50.982;7.032;2023-02-15T18:04:14;10.04;62.03
68177;DHT22;56478;50.982;7.032;2023-02-15T18:06:58;9.94;62.55
68177;DHT22;56478;50.982;7.032;2023-02-15T18:09:44;9.87;62.58
68177;DHT22;56478;50.982;7.032;2023-02-15T18:12:35;10.01;61.84
68177;DHT22;56478;50.982;7.032;2023-02-15T18:15:09;9.93;62.18
68177;DHT22;56478;50.982;7.032;2023-02-15T18:17:39;9.87;62.82
68177;DHT22;56478;50.982;7.032;2023-02-15T18:22:43;9.87;62.26
68177;DHT22;56478;50.982;7.032;2023-02-15T18:25:24;9.81;62.35
68177;DHT22;56478;50.982;7.032;2023-02-15T18:27:55;9.70;63.02
68177;DHT22;56478;50.982;7.032;2023-02-15T18:30:22;9.67;62.93
68177;DHT22;56478;50.982;7.032;2023-02-15T18:32:53;9.67;62.89
68177;DHT22;56478;50.982;7.032;2023-02-15T18:35:25;9.62;63.03
68177;DHT22;56478;50.982;7.032;2023-02-15T18:37:53;9.52;63.24
68177;DHT22;56478;50.982;7.032;2023-02-15T18:40:21;9.36;63.89
68177;DHT22;56478;50.982;7.032;2023-02-15T18:42:47;9.25;64.09
68177;DHT22;56478;50.982;7.032;2023-02-15T18:45:20;9.19;64.35
68177;DHT22;56478;50.982;7.032;2023-02-15T18:47:47;9.12;64.63
68177;DHT22;56478;50.982;7.032;2023-02-15T18:50:14;9.11;64.73
68177;DHT22;56478;50.982;7.032;2023-02-15T18:52:40;9.10;64.69
68177;DHT22;56478;50.982;7.032;2023-02-15T18:55:22;9.07;64.77
68177;DHT22;56478;50.982;7.032;2023-02-15T18:57:50;9.08;64.78
68177;DHT22;56478;50.982;7.032;2023-02-15T19:00:24;9.07;64.82
68177;DHT22;56478;50.982;7.032;2023-02-15T19:02:50;9.01;65.00
68177;DHT22;56478;50.982;7.032;2023-02-15T19:05:16;8.98;65.21
68177;DHT22;56478;50.982;7.032;2023-02-15T19:07:45;8.97;65.16
68177;DHT22;56478;50.982;7.032;2023-02-15T19:10:18;9.01;65.28
68177;DHT22;56478;50.982;7.032;2023-02-15T19:12:45;9.03;65.22
68177;DHT22;56478;50.982;7.032;2023-02-15T19:15:29;8.92;65.40
68177;DHT22;56478;50.982;7.032;2023-02-15T19:17:55;8.90;65.62
68177;DHT22;56478;50.982;7.032;2023-02-15T19:20:29;8.97;65.72
68177;DHT22;56478;50.982;7.032;2023-02-15T19:22:56;8.96;65.44
68177;DHT22;56478;50.982;7.032;2023-02-15T19:25:25;9.01;65.02
68177;DHT22;56478;50.982;7.032;2023-02-15T19:27:54;8.84;65.73